createdAt,value
2019-05-10T00:00:41.307Z,10.07
2019-05-10T00:03:28.510Z,9.50
2019-05-10T00:06:16.069Z,11.17
2019-05-10T00:08:47.743Z,10.83
2019-05-10T00:11:42.541Z,12.73
2019-05-10T00:14:18.505Z,12.50
2019-05-10T00:16:49.401Z,13.67
2019-05-10T00:19:19.193Z,9.40
2019-05-10T00:21:48.958Z,12.87
2019-05-10T00:24:18.838Z,10.47
2019-05-10T00:26:48.596Z,9.83
2019-05-10T00:29:18.892Z,10.20
2019-05-10T00:31:48.703Z,8.73
2019-05-10T00:34:18.366Z,9.57
2019-05-10T00:36:48.143Z,8.87
2019-05-10T00:39:19.511Z,11.10
2019-05-10T00:41:49.394Z,7.63
2019-05-10T00:44:19.088Z,8.07
2019-05-10T00:46:48.899Z,8.20
2019-05-10T00:49:18.555Z,5.83
2019-05-10T00:52:03.357Z,9.27
2019-05-10T00:54:33.012Z,6.23
2019-05-10T00:57:02.735Z,10.30
2019-05-10T00:59:32.565Z,7.30
2019-05-10T01:02:02.298Z,7.13
2019-05-10T01:04:31.986Z,8.37
2019-05-10T01:07:01.698Z,10.70
2019-05-10T01:09:31.381Z,8.33
2019-05-10T01:12:01.125Z,11.47
2019-05-10T01:14:30.981Z,9.53
2019-05-10T01:17:00.796Z,10.47
2019-05-10T01:19:30.753Z,13.60
2019-05-10T01:22:00.552Z,13.90
2019-05-10T01:24:30.283Z,7.83
2019-05-10T01:27:00.076Z,12.83
2019-05-10T01:29:29.924Z,8.13
2019-05-10T01:31:59.874Z,9.53
2019-05-10T01:34:29.547Z,8.80
2019-05-10T01:36:59.524Z,10.93
2019-05-10T01:39:29.232Z,10.40
2019-05-10T01:41:59.027Z,6.60
2019-05-10T01:44:28.801Z,7.80
2019-05-10T01:46:58.472Z,5.60
2019-05-10T01:49:28.220Z,7.87
2019-05-10T01:51:57.970Z,8.83
2019-05-10T01:54:27.786Z,8.63
2019-05-10T01:56:57.582Z,11.60
2019-05-10T01:59:27.304Z,12.33
2019-05-10T02:01:57.015Z,7.33
2019-05-10T02:04:26.788Z,9.83
2019-05-10T02:06:56.625Z,8.73
2019-05-10T02:09:26.354Z,8.77
2019-05-10T02:11:56.037Z,11.03
2019-05-10T02:14:25.804Z,12.47
2019-05-10T02:16:55.811Z,9.30
2019-05-10T02:19:25.507Z,11.03
2019-05-10T02:21:55.319Z,11.70
2019-05-10T02:24:25.107Z,11.00
2019-05-10T02:26:54.878Z,8.73
2019-05-10T02:29:24.606Z,11.30
2019-05-10T02:31:54.395Z,9.07
2019-05-10T02:34:24.137Z,12.97
2019-05-10T02:36:54.132Z,6.47
2019-05-10T02:39:23.911Z,12.13
2019-05-10T02:41:53.759Z,9.43
2019-05-10T02:44:23.488Z,7.83
2019-05-10T02:46:53.215Z,9.33
2019-05-10T02:49:22.911Z,10.17
2019-05-10T02:51:52.635Z,12.67
2019-05-10T02:54:22.646Z,6.67
2019-05-10T02:56:54.035Z,10.37
2019-05-10T02:59:24.341Z,12.53
2019-05-10T03:01:57.184Z,7.97
2019-05-10T03:04:28.505Z,8.37
2019-05-10T03:07:04.040Z,10.73
2019-05-10T03:09:35.645Z,8.07
2019-05-10T03:12:24.587Z,9.43
2019-05-10T03:14:58.332Z,7.50
2019-05-10T03:17:29.181Z,9.73
2019-05-10T03:20:01.774Z,11.87
2019-05-10T03:22:36.045Z,11.77
2019-05-10T03:25:07.491Z,9.33
2019-05-10T03:27:37.894Z,10.17
2019-05-10T03:30:08.604Z,7.87
2019-05-10T03:32:38.310Z,9.10
2019-05-10T03:35:10.121Z,7.47
2019-05-10T03:37:40.577Z,7.37
2019-05-10T03:40:10.477Z,7.73
2019-05-10T03:42:40.394Z,8.53
2019-05-10T03:45:11.128Z,8.97
2019-05-10T03:47:40.944Z,9.70
2019-05-10T03:50:11.126Z,5.83
2019-05-10T03:52:40.913Z,8.93
2019-05-10T03:55:10.927Z,8.13
2019-05-10T03:57:40.683Z,8.30
2019-05-10T04:00:13.992Z,10.30
2019-05-10T04:02:43.659Z,7.20
2019-05-10T04:05:13.781Z,9.20
2019-05-10T04:07:43.734Z,8.93
2019-05-10T04:10:13.871Z,7.57
2019-05-10T04:12:43.561Z,8.60
2019-05-10T04:15:13.706Z,10.77
2019-05-10T04:17:43.524Z,12.63
2019-05-10T04:20:13.739Z,9.57
2019-05-10T04:22:43.638Z,12.03
2019-05-10T04:25:15.410Z,10.20
2019-05-10T04:27:45.166Z,10.47
2019-05-10T04:30:15.803Z,12.23
2019-05-10T04:32:45.466Z,11.27
2019-05-10T04:35:15.575Z,9.70
2019-05-10T04:37:45.611Z,14.87
2019-05-10T04:40:15.613Z,12.10
2019-05-10T04:42:45.406Z,10.30
2019-05-10T04:45:16.058Z,9.63
2019-05-10T04:47:45.725Z,11.43
2019-05-10T04:50:15.647Z,10.67
2019-05-10T04:52:45.379Z,13.13
2019-05-10T04:55:15.089Z,10.83
2019-05-10T04:57:50.743Z,17.40
2019-05-10T05:00:16.673Z,10.87
2019-05-10T05:02:46.409Z,12.00
2019-05-10T05:05:16.454Z,11.77
2019-05-10T05:07:46.238Z,14.20
2019-05-10T05:10:15.922Z,11.60
2019-05-10T05:12:45.601Z,14.60
2019-05-10T05:15:17.032Z,17.37
2019-05-10T05:17:46.811Z,14.43
2019-05-10T05:20:18.201Z,14.77
2019-05-10T05:22:48.239Z,15.63
2019-05-10T05:25:21.626Z,13.20
2019-05-10T05:28:05.339Z,13.77
2019-05-10T05:30:21.660Z,14.30
2019-05-10T05:32:51.363Z,13.37
2019-05-10T05:35:21.130Z,14.00
2019-05-10T05:37:51.005Z,14.70
2019-05-10T05:40:20.895Z,13.10
2019-05-10T05:42:50.653Z,16.80
2019-05-10T05:45:20.476Z,16.33
2019-05-10T05:47:50.235Z,16.63
2019-05-10T05:50:20.277Z,12.97
2019-05-10T05:52:50.139Z,14.57
2019-05-10T05:55:22.930Z,16.17
2019-05-10T05:57:51.450Z,15.60
2019-05-10T06:00:21.332Z,14.17
2019-05-10T06:02:51.110Z,13.53
2019-05-10T06:05:33.487Z,19.50
2019-05-10T06:07:52.948Z,16.57
2019-05-10T06:10:22.957Z,12.43
2019-05-10T06:12:52.939Z,16.00
2019-05-10T06:15:28.778Z,20.63
2019-05-10T06:17:57.253Z,15.27
2019-05-10T06:20:26.675Z,12.30
2019-05-10T06:23:06.396Z,14.73
2019-05-10T06:25:39.284Z,13.67
2019-05-10T06:27:59.601Z,15.40
2019-05-10T06:30:29.526Z,19.37
2019-05-10T06:33:11.481Z,12.87
2019-05-10T06:35:30.840Z,14.43
2019-05-10T06:38:00.700Z,15.10
2019-05-10T06:40:34.775Z,16.10
2019-05-10T06:43:07.090Z,16.80
2019-05-10T06:45:33.570Z,13.30
2019-05-10T06:48:03.272Z,17.30
2019-05-10T06:50:33.019Z,15.30
2019-05-10T06:53:07.787Z,11.40
2019-05-10T06:55:34.323Z,17.27
2019-05-10T06:58:04.404Z,13.57
2019-05-10T07:00:37.918Z,10.73
2019-05-10T07:03:05.698Z,15.33
2019-05-10T07:05:35.452Z,12.33
2019-05-10T07:08:14.987Z,13.50
2019-05-10T07:10:36.542Z,11.87
2019-05-10T07:13:06.929Z,13.50
2019-05-10T07:15:42.033Z,16.37
2019-05-10T07:18:08.744Z,12.73
2019-05-10T07:20:38.508Z,12.07
2019-05-10T07:23:08.289Z,11.80
2019-05-10T07:25:43.468Z,12.57
2019-05-10T07:28:15.476Z,11.67
2019-05-10T07:30:41.859Z,10.90
2019-05-10T07:33:11.637Z,11.77
2019-05-10T07:35:41.304Z,12.40
2019-05-10T07:38:11.060Z,13.77
2019-05-10T07:40:40.747Z,15.53
2019-05-10T07:43:10.718Z,11.97
2019-05-10T07:45:40.410Z,10.17
2019-05-10T07:48:10.504Z,12.50
2019-05-10T07:50:42.263Z,13.27
2019-05-10T07:53:16.422Z,8.90
2019-05-10T07:55:43.310Z,13.77
2019-05-10T07:58:13.009Z,13.17
2019-05-10T08:00:44.732Z,16.37
2019-05-10T08:03:17.605Z,14.47
2019-05-10T08:05:51.041Z,11.90
2019-05-10T08:08:19.229Z,13.13
2019-05-10T08:10:49.098Z,10.73
2019-05-10T08:13:21.240Z,8.17
2019-05-10T08:15:50.343Z,9.73
2019-05-10T08:18:24.135Z,7.80
2019-05-10T08:20:57.765Z,5.90
2019-05-10T08:23:27.750Z,6.27
2019-05-10T08:25:54.508Z,5.80
2019-05-10T08:28:28.007Z,15.97
2019-05-10T08:30:58.691Z,17.73
2019-05-10T08:33:27.375Z,11.37
2019-05-10T08:36:00.750Z,10.90
2019-05-10T08:38:28.621Z,10.63
2019-05-10T08:40:58.356Z,8.97
2019-05-10T08:43:33.138Z,14.17
2019-05-10T08:45:59.595Z,7.87
2019-05-10T08:48:30.020Z,5.30
2019-05-10T08:51:04.073Z,5.30
2019-05-10T08:53:32.921Z,6.90
2019-05-10T08:56:07.503Z,11.60
2019-05-10T08:58:37.080Z,7.23
2019-05-10T09:01:20.563Z,6.73
2019-05-10T09:03:37.174Z,5.03
2019-05-10T09:06:11.692Z,10.60
2019-05-10T09:08:38.588Z,4.20
2019-05-10T09:11:08.664Z,5.80
2019-05-10T09:13:41.394Z,7.63
2019-05-10T09:16:09.955Z,8.87
2019-05-10T09:18:46.775Z,4.07
2019-05-10T09:21:14.221Z,5.30
2019-05-10T09:23:42.809Z,5.77
2019-05-10T09:26:16.367Z,4.97
2019-05-10T09:28:47.599Z,5.23
2019-05-10T09:31:21.296Z,6.33
2019-05-10T09:33:49.425Z,5.30
2019-05-10T09:36:23.146Z,4.27
2019-05-10T09:38:52.512Z,5.60
2019-05-10T09:41:22.624Z,5.37
2019-05-10T09:43:53.765Z,7.87
2019-05-10T09:46:23.640Z,4.97
2019-05-10T09:48:54.693Z,8.70
2019-05-10T09:51:30.132Z,3.23
2019-05-10T09:53:57.609Z,4.10
2019-05-10T09:56:32.816Z,6.23
2019-05-10T09:58:59.408Z,5.10
2019-05-10T10:01:29.072Z,7.27
2019-05-10T10:04:02.130Z,6.17
2019-05-10T10:06:30.190Z,3.83
2019-05-10T10:09:01.028Z,4.20
2019-05-10T10:11:30.907Z,5.37
2019-05-10T10:14:02.175Z,4.70
2019-05-10T10:16:32.135Z,3.37
2019-05-10T10:19:01.823Z,5.13
2019-05-10T10:21:35.573Z,5.97
2019-05-10T10:24:12.599Z,6.20
2019-05-10T10:26:34.595Z,7.10
2019-05-10T10:29:04.347Z,6.20
2019-05-10T10:31:48.356Z,6.43
2019-05-10T10:34:07.625Z,6.20
2019-05-10T10:36:40.409Z,5.43
2019-05-10T10:39:08.953Z,6.77
2019-05-10T10:41:38.638Z,4.67
2019-05-10T10:44:08.507Z,5.80
2019-05-10T10:46:38.221Z,4.03
2019-05-10T10:49:10.430Z,4.17
2019-05-10T10:51:39.269Z,4.30
2019-05-10T10:54:09.032Z,5.67
2019-05-10T10:56:39.150Z,6.57
2019-05-10T10:59:08.798Z,7.00
2019-05-10T11:01:49.476Z,5.67
2019-05-10T11:04:09.973Z,5.37
2019-05-10T11:06:39.747Z,7.77
2019-05-10T11:09:10.110Z,5.57
2019-05-10T11:11:44.266Z,12.90
2019-05-10T11:14:11.383Z,5.17
2019-05-10T11:16:41.415Z,4.73
2019-05-10T11:19:15.530Z,8.17
2019-05-10T11:21:42.579Z,3.93
2019-05-10T11:24:18.199Z,4.50
2019-05-10T11:26:44.935Z,4.77
2019-05-10T11:29:25.327Z,7.10
2019-05-10T11:31:53.495Z,6.47
2019-05-10T11:34:18.159Z,6.13
2019-05-10T11:36:48.381Z,5.47
2019-05-10T11:39:26.235Z,5.00
2019-05-10T11:41:52.865Z,3.50
2019-05-10T11:44:22.826Z,6.10
2019-05-10T11:46:52.593Z,5.43
2019-05-10T11:49:22.446Z,8.63
2019-05-10T11:51:54.941Z,5.77
2019-05-10T11:54:23.787Z,5.17
2019-05-10T11:56:58.476Z,6.03
2019-05-10T12:04:36.268Z,7.53
2019-05-10T12:07:01.789Z,9.23
2019-05-10T12:09:31.635Z,9.27
2019-05-10T12:12:03.340Z,10.63
2019-05-10T12:14:33.100Z,10.07
2019-05-10T12:17:06.351Z,12.80
2019-05-10T12:19:47.875Z,10.00
2019-05-10T12:22:05.972Z,11.93
2019-05-10T12:24:52.101Z,12.50
2019-05-10T12:26:03.777Z,10.43
2019-05-10T12:26:16.348Z,9.30
2019-05-10T12:27:18.982Z,11.07
2019-05-10T12:29:38.712Z,9.43
2019-05-10T12:32:10.401Z,10.47
2019-05-10T12:34:41.059Z,7.97
2019-05-10T12:37:11.029Z,7.80
2019-05-10T12:39:40.740Z,12.70
2019-05-10T12:42:13.980Z,9.50
2019-05-10T12:44:43.999Z,5.63
2019-05-10T12:47:12.360Z,8.90
2019-05-10T12:49:42.085Z,6.40
2019-05-10T12:52:14.052Z,7.60
2019-05-10T12:54:43.709Z,7.40
2019-05-10T12:57:13.424Z,5.17
2019-05-10T12:59:43.080Z,7.07
2019-05-10T13:02:13.183Z,6.50
2019-05-10T13:04:47.058Z,6.87
2019-05-10T13:07:14.819Z,6.60
2019-05-10T13:09:44.548Z,5.90
2019-05-10T13:12:14.606Z,6.37
2019-05-10T13:14:46.483Z,7.03
2019-05-10T13:17:17.143Z,5.10
2019-05-10T13:19:47.137Z,5.53
2019-05-10T13:22:16.841Z,4.03
2019-05-10T13:24:46.695Z,5.60
2019-05-10T13:27:16.521Z,5.47
2019-05-10T13:29:50.451Z,5.07
2019-05-10T13:32:20.543Z,6.30
2019-05-10T13:34:49.215Z,6.73
2019-05-10T13:37:23.543Z,4.90
2019-05-10T13:39:50.353Z,4.40
2019-05-10T13:42:20.056Z,7.83
2019-05-10T13:44:49.873Z,5.27
2019-05-10T13:47:19.585Z,5.43
2019-05-10T13:49:49.522Z,6.30
2019-05-10T13:52:19.242Z,5.57
2019-05-10T13:54:49.093Z,7.33
2019-05-10T13:57:18.829Z,8.27
2019-05-10T13:59:54.401Z,4.33
2019-05-10T14:02:22.843Z,5.30
2019-05-10T14:04:51.530Z,10.00
2019-05-10T14:07:21.181Z,9.00
2019-05-10T14:09:50.869Z,13.43
2019-05-10T14:12:23.109Z,7.50
2019-05-10T14:14:55.401Z,5.20
2019-05-10T14:17:23.498Z,4.83
2019-05-10T14:19:53.149Z,5.93
2019-05-10T14:22:22.900Z,14.53
2019-05-10T14:24:55.512Z,23.80
2019-05-10T14:27:24.431Z,11.80
2019-05-10T14:29:54.227Z,7.77
2019-05-10T14:32:24.120Z,5.83
2019-05-10T14:34:53.825Z,6.30
2019-05-10T14:37:23.510Z,7.33
2019-05-10T14:39:53.226Z,8.17
2019-05-10T14:42:30.831Z,7.27
2019-05-10T14:44:54.814Z,9.80
2019-05-10T14:47:24.496Z,10.33
2019-05-10T14:49:54.241Z,8.23
2019-05-10T14:52:24.080Z,9.93
2019-05-10T14:54:55.401Z,10.63
2019-05-10T14:57:25.359Z,8.60
2019-05-10T14:59:55.073Z,7.97
2019-05-10T15:02:25.179Z,7.10
2019-05-10T15:04:55.029Z,5.77
2019-05-10T15:07:24.768Z,6.37
2019-05-10T15:12:25.966Z,5.90
2019-05-10T15:14:55.660Z,11.70
2019-05-10T15:17:29.557Z,6.73
2019-05-10T15:19:59.750Z,7.03
2019-05-10T15:22:28.574Z,7.17
2019-05-10T15:24:58.285Z,7.50
2019-05-10T15:27:27.999Z,9.77
2019-05-10T15:29:58.795Z,7.17
2019-05-10T15:32:29.424Z,7.30
2019-05-10T15:35:08.294Z,6.77
2019-05-10T15:37:30.569Z,6.60
2019-05-10T15:40:05.449Z,7.23
2019-05-10T15:42:36.125Z,7.60
2019-05-10T15:45:05.161Z,7.23
2019-05-10T15:47:48.932Z,7.27
2019-05-10T15:50:07.664Z,7.83
2019-05-10T15:52:39.661Z,8.53
2019-05-10T15:55:09.811Z,8.80
2019-05-10T15:57:39.457Z,8.03
2019-05-10T16:00:10.258Z,6.80
2019-05-10T16:02:40.049Z,7.03
2019-05-10T16:05:25.623Z,6.80
2019-05-10T16:07:46.575Z,7.43
2019-05-10T16:10:14.443Z,8.70
2019-05-10T16:12:44.706Z,6.07
2019-05-10T16:15:20.137Z,5.40
2019-05-10T16:17:46.537Z,4.93
2019-05-10T16:20:16.535Z,5.33
2019-05-10T16:22:46.274Z,7.50
2019-05-10T16:25:16.147Z,7.17
2019-05-10T16:27:45.837Z,7.57
2019-05-10T16:30:18.025Z,8.13
2019-05-10T16:32:47.509Z,8.27
2019-05-10T16:35:17.241Z,7.77
2019-05-10T16:37:46.999Z,7.87
2019-05-10T16:40:16.902Z,7.90
2019-05-10T16:42:46.634Z,8.87
2019-05-10T16:45:16.698Z,7.67
2019-05-10T16:47:46.446Z,7.53
2019-05-10T16:50:16.544Z,7.30
2019-05-10T16:52:46.256Z,11.40
2019-05-10T16:55:16.123Z,7.87
2019-05-10T16:57:45.845Z,7.77
2019-05-10T17:00:16.166Z,9.30
2019-05-10T17:02:45.881Z,8.37
2019-05-10T17:05:17.455Z,8.20
2019-05-10T17:07:47.388Z,8.73
2019-05-10T17:10:17.395Z,7.20
2019-05-10T17:12:47.146Z,7.13
2019-05-10T17:15:17.239Z,6.50
2019-05-10T17:17:46.912Z,6.70
2019-05-10T17:20:17.415Z,7.83
2019-05-10T17:22:47.230Z,8.57
2019-05-10T17:25:17.293Z,8.63
2019-05-10T17:27:50.653Z,7.87
2019-05-10T17:30:22.048Z,8.57
2019-05-10T17:32:50.603Z,10.20
2019-05-10T17:35:20.598Z,8.30
2019-05-10T17:37:52.986Z,11.37
2019-05-10T17:40:23.486Z,10.43
2019-05-10T17:42:53.170Z,9.77
2019-05-10T17:45:25.008Z,11.13
2019-05-10T17:47:54.866Z,11.80
2019-05-10T17:50:24.581Z,11.37
2019-05-10T17:52:54.459Z,12.37
2019-05-10T17:55:25.593Z,11.97
2019-05-10T17:57:56.625Z,14.83
2019-05-10T18:00:26.611Z,9.87
2019-05-10T18:02:56.383Z,12.13
2019-05-10T18:05:26.127Z,11.73
2019-05-10T18:07:55.775Z,13.97
2019-05-10T18:10:25.652Z,12.77
2019-05-10T18:12:57.579Z,13.37
2019-05-10T18:15:27.655Z,11.37
2019-05-10T18:18:02.743Z,11.60
2019-05-10T18:20:36.026Z,11.37
2019-05-10T18:23:01.306Z,10.90
2019-05-10T18:25:31.052Z,8.57
2019-05-10T18:28:00.940Z,13.40
2019-05-10T18:30:30.616Z,11.80
2019-05-10T18:33:00.410Z,12.97
2019-05-10T18:35:30.172Z,11.50
2019-05-10T18:38:00.916Z,10.07
2019-05-10T18:40:32.155Z,10.57
2019-05-10T18:43:04.472Z,10.17
2019-05-10T18:45:34.748Z,9.27
2019-05-10T18:48:04.722Z,11.33
2019-05-10T18:50:39.609Z,11.00
2019-05-10T18:53:06.230Z,10.73
2019-05-10T18:55:36.262Z,10.07
2019-05-10T18:58:06.023Z,11.67
2019-05-10T19:00:36.065Z,9.83
2019-05-10T19:03:05.832Z,13.03
2019-05-10T19:05:35.540Z,9.83
2019-05-10T19:08:06.097Z,10.63
2019-05-10T19:10:36.373Z,10.17
2019-05-10T19:13:06.565Z,11.00
2019-05-10T19:15:36.508Z,11.20
2019-05-10T19:18:06.346Z,10.60
2019-05-10T19:20:36.182Z,10.47
2019-05-10T19:23:06.016Z,10.67
2019-05-10T19:25:37.829Z,11.50
2019-05-10T19:28:07.266Z,12.70
2019-05-10T19:30:37.326Z,13.40
2019-05-10T19:33:07.144Z,11.77
2019-05-10T19:35:37.952Z,12.53
2019-05-10T19:38:07.898Z,12.13
2019-05-10T19:40:37.743Z,13.53
2019-05-10T19:43:07.446Z,13.03
2019-05-10T19:45:37.245Z,14.17
2019-05-10T19:48:07.047Z,12.50
2019-05-10T19:50:36.789Z,12.27
2019-05-10T19:53:06.687Z,13.23
2019-05-10T19:55:36.478Z,12.43
2019-05-10T19:58:06.906Z,12.20
2019-05-10T20:00:36.636Z,14.90
2019-05-10T20:03:06.882Z,13.40
2019-05-10T20:05:36.807Z,12.93
2019-05-10T20:08:06.757Z,12.77
2019-05-10T20:10:36.854Z,13.37
2019-05-10T20:13:09.304Z,12.77
2019-05-10T20:15:43.439Z,13.97
2019-05-10T20:18:10.697Z,13.93
2019-05-10T20:20:40.519Z,14.47
2019-05-10T20:23:10.274Z,15.37
2019-05-10T20:25:40.001Z,15.57
2019-05-10T20:28:09.720Z,15.23
2019-05-10T20:30:39.469Z,13.07
2019-05-10T20:33:09.280Z,15.17
2019-05-10T20:35:39.061Z,16.07
2019-05-10T20:38:08.781Z,14.93
2019-05-10T20:40:38.518Z,14.47
2019-05-10T20:43:08.341Z,14.13
2019-05-10T20:45:38.206Z,14.10
2019-05-10T20:48:07.983Z,16.40
2019-05-10T20:50:37.709Z,14.90
2019-05-10T20:53:07.410Z,16.97
2019-05-10T20:55:37.121Z,14.57
2019-05-10T20:58:06.967Z,14.63
2019-05-10T21:00:36.873Z,15.90
2019-05-10T21:03:06.756Z,16.77
2019-05-10T21:05:36.573Z,15.90
2019-05-10T21:08:16.664Z,15.63
2019-05-10T21:10:37.728Z,16.70
2019-05-10T21:13:07.502Z,14.73
2019-05-10T21:15:37.281Z,16.80
2019-05-10T21:18:07.011Z,15.57
2019-05-10T21:20:36.745Z,18.37
2019-05-10T21:23:06.753Z,14.90
2019-05-10T21:25:36.719Z,14.93
2019-05-10T21:28:06.475Z,16.80
2019-05-10T21:30:36.239Z,15.27
2019-05-10T21:33:06.029Z,16.37
2019-05-10T21:35:35.810Z,13.83
2019-05-10T21:38:05.635Z,14.80
2019-05-10T21:40:35.854Z,14.60
2019-05-10T21:43:05.664Z,14.63
2019-05-10T21:45:35.775Z,14.37
2019-05-10T21:48:05.556Z,15.30
2019-05-10T21:50:35.230Z,17.53
2019-05-10T21:53:05.081Z,15.43
2019-05-10T21:55:34.823Z,15.43
2019-05-10T21:58:04.696Z,15.40
2019-05-10T22:00:38.752Z,14.67
2019-05-10T22:03:08.472Z,15.13
2019-05-10T22:05:38.227Z,14.57
2019-05-10T22:08:08.173Z,14.13
2019-05-10T22:10:38.039Z,14.77
2019-05-10T22:13:07.762Z,14.30
2019-05-10T22:15:37.577Z,14.30
2019-05-10T22:18:07.282Z,14.57
2019-05-10T22:20:37.053Z,14.53
2019-05-10T22:23:06.780Z,14.20
2019-05-10T22:25:36.542Z,15.50
2019-05-10T22:28:06.531Z,14.67
2019-05-10T22:30:36.376Z,14.47
2019-05-10T22:33:06.190Z,14.93
2019-05-10T22:35:35.925Z,15.00
2019-05-10T22:38:05.797Z,15.83
2019-05-10T22:40:35.707Z,14.93
2019-05-10T22:43:05.516Z,14.50
2019-05-10T22:45:36.181Z,15.10
2019-05-10T22:48:07.622Z,14.80
2019-05-10T22:50:37.415Z,15.30
2019-05-10T22:53:07.123Z,14.63
2019-05-10T22:55:37.069Z,14.97
2019-05-10T22:58:06.870Z,14.73
2019-05-10T23:00:36.725Z,14.70
2019-05-10T23:03:06.597Z,14.23
2019-05-10T23:05:36.282Z,14.27
2019-05-10T23:08:06.003Z,14.73
2019-05-10T23:10:35.656Z,15.40
2019-05-10T23:13:05.574Z,14.67
2019-05-10T23:15:36.825Z,15.43
2019-05-10T23:18:06.780Z,15.80
2019-05-10T23:20:36.535Z,14.77
2019-05-10T23:23:06.376Z,14.50
2019-05-10T23:25:36.125Z,15.43
2019-05-10T23:28:07.451Z,15.70
2019-05-10T23:30:37.152Z,15.40
2019-05-10T23:33:06.926Z,17.40
2019-05-10T23:35:37.758Z,15.40
2019-05-10T23:38:07.707Z,14.63
2019-05-10T23:40:37.493Z,14.63
2019-05-10T23:43:07.255Z,17.03
2019-05-10T23:45:37.111Z,15.57
2019-05-10T23:48:06.959Z,16.17
2019-05-10T23:50:36.802Z,16.10
2019-05-10T23:53:06.564Z,16.40
2019-05-10T23:55:36.249Z,20.30
2019-05-10T23:58:06.085Z,24.43
